sensor_id;sensor_type;location;lat;lon;timestamp;temperature;humidity
15615;DHT22;7907;51.368;6.730;2022-12-07T00:01:40;6.90;99.90
15615;DHT22;7907;51.368;6.730;2022-12-07T00:04:10;6.90;99.90
15615;DHT22;7907;51.368;6.730;2022-12-07T00:06:39;7.00;99.90
15615;DHT22;7907;51.368;6.730;2022-12-07T00:09:10;7.00;99.90
15615;DHT22;7907;51.368;6.730;2022-12-07T00:11:37;7.00;99.90
15615;DHT22;7907;51.368;6.730;2022-12-07T00:14:06;7.00;99.90
15615;DHT22;7907;51.368;6.730;2022-12-07T00:16:34;7.00;99.90
15615;DHT22;7907;51.368;6.730;2022-12-07T00:19:02;6.90;99.90
15615;DHT22;7907;51.368;6.730;2022-12-07T00:21:32;7.00;99.90
15615;DHT22;7907;51.368;6.730;2022-12-07T00:24:00;6.90;99.90
15615;DHT22;7907;51.368;6.730;2022-12-07T00:26:31;6.90;99.90
15615;DHT22;7907;51.368;6.730;2022-12-07T00:28:59;6.80;99.90
15615;DHT22;7907;51.368;6.730;2022-12-07T00:31:28;6.80;99.90
15615;DHT22;7907;51.368;6.730;2022-12-07T00:33:56;6.80;99.90
15615;DHT22;7907;51.368;6.730;2022-12-07T00:36:24;6.90;99.90
15615;DHT22;7907;51.368;6.730;2022-12-07T00:38:52;6.90;99.90
15615;DHT22;7907;51.368;6.730;2022-12-07T00:41:35;6.90;99.90
15615;DHT22;7907;51.368;6.730;2022-12-07T00:44:02;6.80;99.90
15615;DHT22;7907;51.368;6.730;2022-12-07T00:46:30;6.80;99.90
15615;DHT22;7907;51.368;6.730;2022-12-07T00:48:56;6.80;99.90
15615;DHT22;7907;51.368;6.730;2022-12-07T00:51:33;6.80;99.90
15615;DHT22;7907;51.368;6.730;2022-12-07T00:54:00;6.70;99.90
15615;DHT22;7907;51.368;6.730;2022-12-07T00:56:28;6.70;99.90
15615;DHT22;7907;51.368;6.730;2022-12-07T00:58:58;6.70;99.90
15615;DHT22;7907;51.368;6.730;2022-12-07T01:01:27;6.60;99.90
15615;DHT22;7907;51.368;6.730;2022-12-07T01:03:55;6.70;99.90
15615;DHT22;7907;51.368;6.730;2022-12-07T01:06:23;6.70;99.90
15615;DHT22;7907;51.368;6.730;2022-12-07T01:08:51;6.70;99.90
15615;DHT22;7907;51.368;6.730;2022-12-07T01:11:20;6.70;99.90
15615;DHT22;7907;51.368;6.730;2022-12-07T01:13:49;6.70;99.90
15615;DHT22;7907;51.368;6.730;2022-12-07T01:16:19;6.70;99.90
15615;DHT22;7907;51.368;6.730;2022-12-07T01:18:47;6.60;99.90
15615;DHT22;7907;51.368;6.730;2022-12-07T01:21:16;6.60;99.90
15615;DHT22;7907;51.368;6.730;2022-12-07T01:23:43;6.70;99.90
15615;DHT22;7907;51.368;6.730;2022-12-07T01:26:12;6.70;99.90
15615;DHT22;7907;51.368;6.730;2022-12-07T01:28:40;6.70;99.90
15615;DHT22;7907;51.368;6.730;2022-12-07T01:31:10;6.70;99.90
15615;DHT22;7907;51.368;6.730;2022-12-07T01:33:39;6.70;99.90
15615;DHT22;7907;51.368;6.730;2022-12-07T01:36:14;6.80;99.90
15615;DHT22;7907;51.368;6.730;2022-12-07T01:38:42;6.70;99.90
15615;DHT22;7907;51.368;6.730;2022-12-07T01:41:09;6.70;99.90
15615;DHT22;7907;51.368;6.730;2022-12-07T01:43:36;6.70;99.90
15615;DHT22;7907;51.368;6.730;2022-12-07T01:46:04;6.60;99.90
15615;DHT22;7907;51.368;6.730;2022-12-07T01:48:33;6.60;99.90
15615;DHT22;7907;51.368;6.730;2022-12-07T01:51:06;6.60;99.90
15615;DHT22;7907;51.368;6.730;2022-12-07T01:53:36;6.50;99.90
15615;DHT22;7907;51.368;6.730;2022-12-07T01:56:06;6.50;99.90
15615;DHT22;7907;51.368;6.730;2022-12-07T01:58:34;6.50;99.90
15615;DHT22;7907;51.368;6.730;2022-12-07T02:01:01;6.50;99.90
15615;DHT22;7907;51.368;6.730;2022-12-07T02:03:34;6.40;99.90
15615;DHT22;7907;51.368;6.730;2022-12-07T02:06:04;6.40;99.90
15615;DHT22;7907;51.368;6.730;2022-12-07T02:08:33;6.40;99.90
15615;DHT22;7907;51.368;6.730;2022-12-07T02:11:00;6.30;99.90
15615;DHT22;7907;51.368;6.730;2022-12-07T02:13:30;6.30;99.90
15615;DHT22;7907;51.368;6.730;2022-12-07T02:16:10;6.30;99.90
15615;DHT22;7907;51.368;6.730;2022-12-07T02:19:04;6.30;99.90
15615;DHT22;7907;51.368;6.730;2022-12-07T02:21:42;6.30;99.90
15615;DHT22;7907;51.368;6.730;2022-12-07T02:24:29;6.30;99.90
15615;DHT22;7907;51.368;6.730;2022-12-07T02:27:10;6.30;99.90
15615;DHT22;7907;51.368;6.730;2022-12-07T02:29:47;6.30;99.90
15615;DHT22;7907;51.368;6.730;2022-12-07T02:32:22;6.30;99.90
15615;DHT22;7907;51.368;6.730;2022-12-07T02:34:55;6.30;99.90
15615;DHT22;7907;51.368;6.730;2022-12-07T02:37:34;6.30;99.90
15615;DHT22;7907;51.368;6.730;2022-12-07T02:40:08;6.30;99.90
15615;DHT22;7907;51.368;6.730;2022-12-07T02:42:38;6.30;99.90
15615;DHT22;7907;51.368;6.730;2022-12-07T02:45:10;6.30;99.90
15615;DHT22;7907;51.368;6.730;2022-12-07T02:47:40;6.30;99.90
15615;DHT22;7907;51.368;6.730;2022-12-07T02:50:08;6.30;99.90
15615;DHT22;7907;51.368;6.730;2022-12-07T02:52:36;6.20;99.90
15615;DHT22;7907;51.368;6.730;2022-12-07T02:55:04;6.20;99.90
15615;DHT22;7907;51.368;6.730;2022-12-07T02:57:45;6.20;99.90
15615;DHT22;7907;51.368;6.730;2022-12-07T03:00:19;6.10;99.90
15615;DHT22;7907;51.368;6.730;2022-12-07T03:02:53;6.10;99.90
15615;DHT22;7907;51.368;6.730;2022-12-07T03:05:35;6.10;99.90
15615;DHT22;7907;51.368;6.730;2022-12-07T03:08:09;6.10;99.90
15615;DHT22;7907;51.368;6.730;2022-12-07T03:10:44;6.10;99.90
15615;DHT22;7907;51.368;6.730;2022-12-07T03:13:20;6.10;99.90
15615;DHT22;7907;51.368;6.730;2022-12-07T03:15:54;6.00;99.90
15615;DHT22;7907;51.368;6.730;2022-12-07T03:18:27;5.90;99.90
15615;DHT22;7907;51.368;6.730;2022-12-07T03:21:03;5.80;99.90
15615;DHT22;7907;51.368;6.730;2022-12-07T03:23:33;5.80;99.90
15615;DHT22;7907;51.368;6.730;2022-12-07T03:26:01;5.80;99.90
15615;DHT22;7907;51.368;6.730;2022-12-07T03:28:35;5.80;99.90
15615;DHT22;7907;51.368;6.730;2022-12-07T03:31:09;5.80;99.90
15615;DHT22;7907;51.368;6.730;2022-12-07T03:33:41;5.70;99.90
15615;DHT22;7907;51.368;6.730;2022-12-07T03:36:12;5.70;99.90
15615;DHT22;7907;51.368;6.730;2022-12-07T03:38:46;5.70;99.90
15615;DHT22;7907;51.368;6.730;2022-12-07T03:41:21;5.70;99.90
15615;DHT22;7907;51.368;6.730;2022-12-07T03:43:49;5.70;99.90
15615;DHT22;7907;51.368;6.730;2022-12-07T03:46:23;5.60;99.90
15615;DHT22;7907;51.368;6.730;2022-12-07T03:48:58;5.60;99.90
15615;DHT22;7907;51.368;6.730;2022-12-07T03:51:32;5.50;99.90
15615;DHT22;7907;51.368;6.730;2022-12-07T03:54:07;5.60;99.90
15615;DHT22;7907;51.368;6.730;2022-12-07T03:56:36;5.60;99.90
15615;DHT22;7907;51.368;6.730;2022-12-07T03:59:04;5.50;99.90
15615;DHT22;7907;51.368;6.730;2022-12-07T04:01:34;5.60;99.90
15615;DHT22;7907;51.368;6.730;2022-12-07T04:04:01;5.60;99.90
15615;DHT22;7907;51.368;6.730;2022-12-07T04:06:28;5.60;99.90
15615;DHT22;7907;51.368;6.730;2022-12-07T04:08:55;5.60;99.90
15615;DHT22;7907;51.368;6.730;2022-12-07T04:11:22;5.70;99.90
15615;DHT22;7907;51.368;6.730;2022-12-07T04:13:49;5.70;99.90
15615;DHT22;7907;51.368;6.730;2022-12-07T04:16:35;5.70;99.90
15615;DHT22;7907;51.368;6.730;2022-12-07T04:19:08;5.80;99.90
15615;DHT22;7907;51.368;6.730;2022-12-07T04:21:35;5.80;99.90
15615;DHT22;7907;51.368;6.730;2022-12-07T04:24:02;5.80;99.90
15615;DHT22;7907;51.368;6.730;2022-12-07T04:26:29;5.80;99.90
15615;DHT22;7907;51.368;6.730;2022-12-07T04:28:56;5.80;99.90
15615;DHT22;7907;51.368;6.730;2022-12-07T04:31:24;5.80;99.90
15615;DHT22;7907;51.368;6.730;2022-12-07T04:33:52;5.80;99.90
15615;DHT22;7907;51.368;6.730;2022-12-07T04:36:19;5.80;99.90
15615;DHT22;7907;51.368;6.730;2022-12-07T04:38:47;5.80;99.90
15615;DHT22;7907;51.368;6.730;2022-12-07T04:41:16;5.80;99.90
15615;DHT22;7907;51.368;6.730;2022-12-07T04:43:43;5.70;99.90
15615;DHT22;7907;51.368;6.730;2022-12-07T04:46:10;5.80;99.90
15615;DHT22;7907;51.368;6.730;2022-12-07T04:48:37;5.70;99.90
15615;DHT22;7907;51.368;6.730;2022-12-07T04:51:05;5.70;99.90
15615;DHT22;7907;51.368;6.730;2022-12-07T04:53:32;5.70;99.90
15615;DHT22;7907;51.368;6.730;2022-12-07T04:55:59;5.70;99.90
15615;DHT22;7907;51.368;6.730;2022-12-07T04:58:27;5.70;99.90
15615;DHT22;7907;51.368;6.730;2022-12-07T05:00:54;5.70;99.90
15615;DHT22;7907;51.368;6.730;2022-12-07T05:03:22;5.70;99.90
15615;DHT22;7907;51.368;6.730;2022-12-07T05:05:49;5.70;99.90
15615;DHT22;7907;51.368;6.730;2022-12-07T05:08:17;5.60;99.90
15615;DHT22;7907;51.368;6.730;2022-12-07T05:10:44;5.60;99.90
15615;DHT22;7907;51.368;6.730;2022-12-07T05:13:11;5.60;99.90
15615;DHT22;7907;51.368;6.730;2022-12-07T05:15:38;5.60;99.90
15615;DHT22;7907;51.368;6.730;2022-12-07T05:18:05;5.60;99.90
15615;DHT22;7907;51.368;6.730;2022-12-07T05:20:32;5.50;99.90
15615;DHT22;7907;51.368;6.730;2022-12-07T05:22:59;5.50;99.90
15615;DHT22;7907;51.368;6.730;2022-12-07T05:25:28;5.60;99.90
15615;DHT22;7907;51.368;6.730;2022-12-07T05:27:55;5.50;99.90
15615;DHT22;7907;51.368;6.730;2022-12-07T05:30:23;5.50;99.90
15615;DHT22;7907;51.368;6.730;2022-12-07T05:32:50;5.50;99.90
15615;DHT22;7907;51.368;6.730;2022-12-07T05:35:17;5.50;99.90
15615;DHT22;7907;51.368;6.730;2022-12-07T05:37:45;5.40;99.90
15615;DHT22;7907;51.368;6.730;2022-12-07T05:40:14;5.50;99.90
15615;DHT22;7907;51.368;6.730;2022-12-07T05:42:43;5.50;99.90
15615;DHT22;7907;51.368;6.730;2022-12-07T05:45:10;5.50;99.90
15615;DHT22;7907;51.368;6.730;2022-12-07T05:47:38;5.50;99.90
15615;DHT22;7907;51.368;6.730;2022-12-07T05:50:06;5.60;99.90
15615;DHT22;7907;51.368;6.730;2022-12-07T05:52:33;5.60;99.90
15615;DHT22;7907;51.368;6.730;2022-12-07T05:55:00;5.60;99.90
15615;DHT22;7907;51.368;6.730;2022-12-07T05:57:27;5.60;99.90
15615;DHT22;7907;51.368;6.730;2022-12-07T05:59:56;5.70;99.90
15615;DHT22;7907;51.368;6.730;2022-12-07T06:02:22;5.70;99.90
15615;DHT22;7907;51.368;6.730;2022-12-07T06:04:49;5.70;99.90
15615;DHT22;7907;51.368;6.730;2022-12-07T06:07:16;5.70;99.90
15615;DHT22;7907;51.368;6.730;2022-12-07T06:09:44;5.80;99.90
15615;DHT22;7907;51.368;6.730;2022-12-07T06:12:11;5.80;99.90
15615;DHT22;7907;51.368;6.730;2022-12-07T06:14:58;5.80;99.90
15615;DHT22;7907;51.368;6.730;2022-12-07T06:17:25;5.80;99.90
15615;DHT22;7907;51.368;6.730;2022-12-07T06:19:53;5.80;99.90
15615;DHT22;7907;51.368;6.730;2022-12-07T06:22:19;5.80;99.90
15615;DHT22;7907;51.368;6.730;2022-12-07T06:24:47;5.80;99.90
15615;DHT22;7907;51.368;6.730;2022-12-07T06:27:14;5.80;99.90
15615;DHT22;7907;51.368;6.730;2022-12-07T06:29:41;5.80;99.90
15615;DHT22;7907;51.368;6.730;2022-12-07T06:32:09;5.80;99.90
15615;DHT22;7907;51.368;6.730;2022-12-07T06:34:37;5.70;99.90
15615;DHT22;7907;51.368;6.730;2022-12-07T06:37:04;5.80;99.90
15615;DHT22;7907;51.368;6.730;2022-12-07T06:39:31;5.70;99.90
15615;DHT22;7907;51.368;6.730;2022-12-07T06:41:58;5.70;99.90
15615;DHT22;7907;51.368;6.730;2022-12-07T06:44:26;5.70;99.90
15615;DHT22;7907;51.368;6.730;2022-12-07T06:46:53;5.70;99.90
15615;DHT22;7907;51.368;6.730;2022-12-07T06:49:21;5.70;99.90
15615;DHT22;7907;51.368;6.730;2022-12-07T06:51:49;5.80;99.90
15615;DHT22;7907;51.368;6.730;2022-12-07T06:54:16;5.80;99.90
15615;DHT22;7907;51.368;6.730;2022-12-07T06:56:43;5.80;99.90
15615;DHT22;7907;51.368;6.730;2022-12-07T06:59:10;5.80;99.90
15615;DHT22;7907;51.368;6.730;2022-12-07T07:01:37;5.80;99.90
15615;DHT22;7907;51.368;6.730;2022-12-07T07:04:04;5.80;99.90
15615;DHT22;7907;51.368;6.730;2022-12-07T07:06:33;5.80;99.90
15615;DHT22;7907;51.368;6.730;2022-12-07T07:09:00;5.80;99.90
15615;DHT22;7907;51.368;6.730;2022-12-07T07:11:30;5.80;99.90
15615;DHT22;7907;51.368;6.730;2022-12-07T07:13:57;5.80;99.90
15615;DHT22;7907;51.368;6.730;2022-12-07T07:16:28;5.90;99.90
15615;DHT22;7907;51.368;6.730;2022-12-07T07:18:55;5.90;99.90
15615;DHT22;7907;51.368;6.730;2022-12-07T07:21:23;5.80;99.90
15615;DHT22;7907;51.368;6.730;2022-12-07T07:23:51;5.80;99.90
15615;DHT22;7907;51.368;6.730;2022-12-07T07:26:18;5.80;99.90
15615;DHT22;7907;51.368;6.730;2022-12-07T07:28:45;5.80;99.90
15615;DHT22;7907;51.368;6.730;2022-12-07T07:31:12;5.70;99.90
15615;DHT22;7907;51.368;6.730;2022-12-07T07:33:40;5.70;99.90
15615;DHT22;7907;51.368;6.730;2022-12-07T07:36:07;5.60;99.90
15615;DHT22;7907;51.368;6.730;2022-12-07T07:38:34;5.70;99.90
15615;DHT22;7907;51.368;6.730;2022-12-07T07:41:03;5.60;99.90
15615;DHT22;7907;51.368;6.730;2022-12-07T07:43:30;5.60;99.90
15615;DHT22;7907;51.368;6.730;2022-12-07T07:45:57;5.60;99.90
15615;DHT22;7907;51.368;6.730;2022-12-07T07:48:24;5.60;99.90
15615;DHT22;7907;51.368;6.730;2022-12-07T07:50:51;5.60;99.90
15615;DHT22;7907;51.368;6.730;2022-12-07T07:53:18;5.60;99.90
15615;DHT22;7907;51.368;6.730;2022-12-07T07:55:51;5.60;99.90
15615;DHT22;7907;51.368;6.730;2022-12-07T07:58:21;5.50;99.90
15615;DHT22;7907;51.368;6.730;2022-12-07T08:00:48;5.60;99.90
15615;DHT22;7907;51.368;6.730;2022-12-07T08:03:15;5.50;99.90
15615;DHT22;7907;51.368;6.730;2022-12-07T08:05:42;5.60;99.90
15615;DHT22;7907;51.368;6.730;2022-12-07T08:08:10;5.50;99.90
15615;DHT22;7907;51.368;6.730;2022-12-07T08:10:37;5.50;99.90
15615;DHT22;7907;51.368;6.730;2022-12-07T08:13:04;5.50;99.90
15615;DHT22;7907;51.368;6.730;2022-12-07T08:15:44;5.50;99.90
15615;DHT22;7907;51.368;6.730;2022-12-07T08:18:12;5.50;99.90
15615;DHT22;7907;51.368;6.730;2022-12-07T08:20:40;5.50;99.90
15615;DHT22;7907;51.368;6.730;2022-12-07T08:23:09;5.40;99.90
15615;DHT22;7907;51.368;6.730;2022-12-07T08:25:37;5.50;99.90
15615;DHT22;7907;51.368;6.730;2022-12-07T08:28:04;5.50;99.90
15615;DHT22;7907;51.368;6.730;2022-12-07T08:30:31;5.50;99.90
15615;DHT22;7907;51.368;6.730;2022-12-07T08:33:00;5.50;99.90
15615;DHT22;7907;51.368;6.730;2022-12-07T08:35:27;5.50;99.90
15615;DHT22;7907;51.368;6.730;2022-12-07T08:37:54;5.50;99.90
15615;DHT22;7907;51.368;6.730;2022-12-07T08:40:23;5.50;99.90
15615;DHT22;7907;51.368;6.730;2022-12-07T08:42:50;5.50;99.90
15615;DHT22;7907;51.368;6.730;2022-12-07T08:45:19;5.50;99.90
15615;DHT22;7907;51.368;6.730;2022-12-07T08:47:50;5.60;99.90
15615;DHT22;7907;51.368;6.730;2022-12-07T08:50:20;5.60;99.90
15615;DHT22;7907;51.368;6.730;2022-12-07T08:52:57;5.60;99.90
15615;DHT22;7907;51.368;6.730;2022-12-07T08:55:26;5.60;99.90
15615;DHT22;7907;51.368;6.730;2022-12-07T08:57:53;5.70;99.90
15615;DHT22;7907;51.368;6.730;2022-12-07T09:00:21;5.80;99.90
15615;DHT22;7907;51.368;6.730;2022-12-07T09:02:48;5.80;99.90
15615;DHT22;7907;51.368;6.730;2022-12-07T09:05:16;5.90;99.90
15615;DHT22;7907;51.368;6.730;2022-12-07T09:07:47;5.90;99.90
15615;DHT22;7907;51.368;6.730;2022-12-07T09:10:15;5.90;99.90
15615;DHT22;7907;51.368;6.730;2022-12-07T09:12:43;6.00;99.90
15615;DHT22;7907;51.368;6.730;2022-12-07T09:15:10;6.00;99.90
15615;DHT22;7907;51.368;6.730;2022-12-07T09:17:37;6.00;99.90
15615;DHT22;7907;51.368;6.730;2022-12-07T09:20:05;6.00;99.90
15615;DHT22;7907;51.368;6.730;2022-12-07T09:22:33;6.10;99.90
15615;DHT22;7907;51.368;6.730;2022-12-07T09:25:02;6.00;99.90
15615;DHT22;7907;51.368;6.730;2022-12-07T09:27:30;6.10;99.90
15615;DHT22;7907;51.368;6.730;2022-12-07T09:29:57;6.20;99.90
15615;DHT22;7907;51.368;6.730;2022-12-07T09:32:24;6.30;99.90
15615;DHT22;7907;51.368;6.730;2022-12-07T09:34:51;6.40;99.90
15615;DHT22;7907;51.368;6.730;2022-12-07T09:37:18;6.30;99.90
15615;DHT22;7907;51.368;6.730;2022-12-07T09:39:45;6.40;99.90
15615;DHT22;7907;51.368;6.730;2022-12-07T09:42:26;6.50;99.90
15615;DHT22;7907;51.368;6.730;2022-12-07T09:44:54;6.60;99.90
15615;DHT22;7907;51.368;6.730;2022-12-07T09:47:21;6.50;99.90
15615;DHT22;7907;51.368;6.730;2022-12-07T09:49:48;6.60;99.90
15615;DHT22;7907;51.368;6.730;2022-12-07T09:52:19;6.60;99.90
15615;DHT22;7907;51.368;6.730;2022-12-07T09:54:49;6.60;99.90
15615;DHT22;7907;51.368;6.730;2022-12-07T09:57:20;6.60;99.90
15615;DHT22;7907;51.368;6.730;2022-12-07T09:59:50;6.60;99.90
15615;DHT22;7907;51.368;6.730;2022-12-07T10:02:24;6.60;99.90
15615;DHT22;7907;51.368;6.730;2022-12-07T10:04:52;6.70;99.90
15615;DHT22;7907;51.368;6.730;2022-12-07T10:07:19;6.70;99.90
15615;DHT22;7907;51.368;6.730;2022-12-07T10:09:50;6.70;99.90
15615;DHT22;7907;51.368;6.730;2022-12-07T10:12:24;6.70;99.90
15615;DHT22;7907;51.368;6.730;2022-12-07T10:14:56;6.70;99.90
15615;DHT22;7907;51.368;6.730;2022-12-07T10:17:32;6.80;99.90
15615;DHT22;7907;51.368;6.730;2022-12-07T10:20:14;6.70;99.90
15615;DHT22;7907;51.368;6.730;2022-12-07T10:22:55;6.70;99.90
15615;DHT22;7907;51.368;6.730;2022-12-07T10:25:25;6.80;99.90
15615;DHT22;7907;51.368;6.730;2022-12-07T10:28:08;6.80;99.90
15615;DHT22;7907;51.368;6.730;2022-12-07T10:30:51;6.90;99.90
15615;DHT22;7907;51.368;6.730;2022-12-07T10:33:32;7.00;99.90
15615;DHT22;7907;51.368;6.730;2022-12-07T10:36:01;7.10;99.90
15615;DHT22;7907;51.368;6.730;2022-12-07T10:38:45;7.20;99.90
15615;DHT22;7907;51.368;6.730;2022-12-07T10:41:13;7.30;99.90
15615;DHT22;7907;51.368;6.730;2022-12-07T10:43:51;7.40;99.90
15615;DHT22;7907;51.368;6.730;2022-12-07T10:50:02;7.50;99.90
15615;DHT22;7907;51.368;6.730;2022-12-07T10:53:00;7.60;99.90
15615;DHT22;7907;51.368;6.730;2022-12-07T10:55:41;7.70;99.90
15615;DHT22;7907;51.368;6.730;2022-12-07T10:58:27;7.80;99.90
15615;DHT22;7907;51.368;6.730;2022-12-07T11:01:02;7.80;99.90
15615;DHT22;7907;51.368;6.730;2022-12-07T11:03:48;8.00;99.90
15615;DHT22;7907;51.368;6.730;2022-12-07T11:06:27;8.10;99.90
15615;DHT22;7907;51.368;6.730;2022-12-07T11:09:06;8.10;99.90
15615;DHT22;7907;51.368;6.730;2022-12-07T11:11:47;8.20;99.90
15615;DHT22;7907;51.368;6.730;2022-12-07T11:14:23;8.30;99.90
15615;DHT22;7907;51.368;6.730;2022-12-07T11:16:56;8.50;99.90
15615;DHT22;7907;51.368;6.730;2022-12-07T11:19:40;8.60;99.90
15615;DHT22;7907;51.368;6.730;2022-12-07T11:22:14;8.60;99.90
15615;DHT22;7907;51.368;6.730;2022-12-07T11:24:50;8.60;99.90
15615;DHT22;7907;51.368;6.730;2022-12-07T11:27:26;8.60;99.90
15615;DHT22;7907;51.368;6.730;2022-12-07T11:30:12;8.60;99.90
15615;DHT22;7907;51.368;6.730;2022-12-07T11:32:50;8.50;99.90
15615;DHT22;7907;51.368;6.730;2022-12-07T11:35:24;8.40;99.90
15615;DHT22;7907;51.368;6.730;2022-12-07T11:38:00;8.30;99.90
15615;DHT22;7907;51.368;6.730;2022-12-07T11:40:31;8.30;99.90
15615;DHT22;7907;51.368;6.730;2022-12-07T11:43:05;8.20;99.90
15615;DHT22;7907;51.368;6.730;2022-12-07T11:45:36;8.30;99.90
15615;DHT22;7907;51.368;6.730;2022-12-07T11:48:11;8.40;99.90
15615;DHT22;7907;51.368;6.730;2022-12-07T11:50:43;8.40;99.90
15615;DHT22;7907;51.368;6.730;2022-12-07T11:53:17;8.50;99.90
15615;DHT22;7907;51.368;6.730;2022-12-07T11:55:52;8.50;99.90
15615;DHT22;7907;51.368;6.730;2022-12-07T11:58:28;8.50;99.90
15615;DHT22;7907;51.368;6.730;2022-12-07T12:01:06;8.50;99.90
15615;DHT22;7907;51.368;6.730;2022-12-07T12:03:41;8.50;99.90
15615;DHT22;7907;51.368;6.730;2022-12-07T12:06:09;8.50;99.90
15615;DHT22;7907;51.368;6.730;2022-12-07T12:08:39;8.40;99.90
15615;DHT22;7907;51.368;6.730;2022-12-07T12:11:19;8.40;99.90
15615;DHT22;7907;51.368;6.730;2022-12-07T12:17:03;8.30;99.90
15615;DHT22;7907;51.368;6.730;2022-12-07T12:19:37;8.30;99.90
15615;DHT22;7907;51.368;6.730;2022-12-07T12:22:13;8.30;99.90
15615;DHT22;7907;51.368;6.730;2022-12-07T12:24:43;8.30;99.90
15615;DHT22;7907;51.368;6.730;2022-12-07T12:27:18;8.30;99.90
15615;DHT22;7907;51.368;6.730;2022-12-07T12:29:53;8.30;99.90
15615;DHT22;7907;51.368;6.730;2022-12-07T12:32:21;8.20;99.90
15615;DHT22;7907;51.368;6.730;2022-12-07T12:35:02;8.10;99.90
15615;DHT22;7907;51.368;6.730;2022-12-07T12:37:40;8.10;99.90
15615;DHT22;7907;51.368;6.730;2022-12-07T12:40:41;8.00;99.90
15615;DHT22;7907;51.368;6.730;2022-12-07T12:43:43;7.90;99.90
15615;DHT22;7907;51.368;6.730;2022-12-07T12:46:47;7.90;99.90
15615;DHT22;7907;51.368;6.730;2022-12-07T12:49:37;7.70;99.90
15615;DHT22;7907;51.368;6.730;2022-12-07T12:58:35;7.30;99.90
15615;DHT22;7907;51.368;6.730;2022-12-07T13:10:34;7.40;99.90
15615;DHT22;7907;51.368;6.730;2022-12-07T13:13:08;7.50;99.90
15615;DHT22;7907;51.368;6.730;2022-12-07T13:15:53;7.60;99.90
15615;DHT22;7907;51.368;6.730;2022-12-07T13:18:34;7.60;99.90
15615;DHT22;7907;51.368;6.730;2022-12-07T13:21:02;7.60;99.90
15615;DHT22;7907;51.368;6.730;2022-12-07T13:23:31;7.70;99.90
15615;DHT22;7907;51.368;6.730;2022-12-07T13:26:13;7.70;99.90
15615;DHT22;7907;51.368;6.730;2022-12-07T13:28:43;7.90;99.90
15615;DHT22;7907;51.368;6.730;2022-12-07T13:31:26;8.00;99.90
15615;DHT22;7907;51.368;6.730;2022-12-07T13:33:55;8.00;99.90
15615;DHT22;7907;51.368;6.730;2022-12-07T13:36:24;8.10;99.90
15615;DHT22;7907;51.368;6.730;2022-12-07T13:38:54;8.20;99.90
15615;DHT22;7907;51.368;6.730;2022-12-07T13:41:23;8.20;99.90
15615;DHT22;7907;51.368;6.730;2022-12-07T13:44:00;8.20;99.90
15615;DHT22;7907;51.368;6.730;2022-12-07T13:46:35;8.10;99.90
15615;DHT22;7907;51.368;6.730;2022-12-07T13:49:20;8.00;99.90
15615;DHT22;7907;51.368;6.730;2022-12-07T13:51:48;7.90;99.90
15615;DHT22;7907;51.368;6.730;2022-12-07T13:54:16;7.90;99.90
15615;DHT22;7907;51.368;6.730;2022-12-07T13:56:48;7.90;99.90
15615;DHT22;7907;51.368;6.730;2022-12-07T13:59:18;7.80;99.90
15615;DHT22;7907;51.368;6.730;2022-12-07T14:01:47;7.80;99.90
15615;DHT22;7907;51.368;6.730;2022-12-07T14:04:33;7.80;99.90
15615;DHT22;7907;51.368;6.730;2022-12-07T14:07:17;7.80;99.90
15615;DHT22;7907;51.368;6.730;2022-12-07T14:09:54;7.90;99.90
15615;DHT22;7907;51.368;6.730;2022-12-07T14:12:23;7.80;99.90
15615;DHT22;7907;51.368;6.730;2022-12-07T14:14:51;7.80;99.90
15615;DHT22;7907;51.368;6.730;2022-12-07T14:17:21;7.90;99.90
15615;DHT22;7907;51.368;6.730;2022-12-07T14:19:52;7.90;99.90
15615;DHT22;7907;51.368;6.730;2022-12-07T14:22:31;7.90;99.90
15615;DHT22;7907;51.368;6.730;2022-12-07T14:25:19;8.00;99.90
15615;DHT22;7907;51.368;6.730;2022-12-07T14:28:09;8.00;99.90
15615;DHT22;7907;51.368;6.730;2022-12-07T14:30:51;8.10;99.90
15615;DHT22;7907;51.368;6.730;2022-12-07T14:33:19;8.10;99.90
15615;DHT22;7907;51.368;6.730;2022-12-07T14:35:47;8.10;99.90
15615;DHT22;7907;51.368;6.730;2022-12-07T14:38:14;8.00;99.90
15615;DHT22;7907;51.368;6.730;2022-12-07T14:40:44;7.90;99.90
15615;DHT22;7907;51.368;6.730;2022-12-07T14:43:15;7.90;99.90
15615;DHT22;7907;51.368;6.730;2022-12-07T14:45:42;7.80;99.90
15615;DHT22;7907;51.368;6.730;2022-12-07T14:48:12;7.70;99.90
15615;DHT22;7907;51.368;6.730;2022-12-07T14:50:41;7.60;99.90
15615;DHT22;7907;51.368;6.730;2022-12-07T14:53:11;7.60;99.90
15615;DHT22;7907;51.368;6.730;2022-12-07T14:55:39;7.50;99.90
15615;DHT22;7907;51.368;6.730;2022-12-07T14:58:08;7.50;99.90
15615;DHT22;7907;51.368;6.730;2022-12-07T15:00:40;7.50;99.90
15615;DHT22;7907;51.368;6.730;2022-12-07T15:03:07;7.40;99.90
15615;DHT22;7907;51.368;6.730;2022-12-07T15:05:35;7.30;99.90
15615;DHT22;7907;51.368;6.730;2022-12-07T15:08:03;7.30;99.90
15615;DHT22;7907;51.368;6.730;2022-12-07T15:10:32;7.20;99.90
15615;DHT22;7907;51.368;6.730;2022-12-07T15:13:00;7.20;99.90
15615;DHT22;7907;51.368;6.730;2022-12-07T15:15:43;7.20;99.90
15615;DHT22;7907;51.368;6.730;2022-12-07T15:18:10;7.10;99.90
15615;DHT22;7907;51.368;6.730;2022-12-07T15:20:37;7.10;99.90
15615;DHT22;7907;51.368;6.730;2022-12-07T15:23:04;7.00;99.90
15615;DHT22;7907;51.368;6.730;2022-12-07T15:25:32;7.00;99.90
15615;DHT22;7907;51.368;6.730;2022-12-07T15:27:59;7.00;99.90
15615;DHT22;7907;51.368;6.730;2022-12-07T15:30:26;7.00;99.90
15615;DHT22;7907;51.368;6.730;2022-12-07T15:32:55;7.10;99.90
15615;DHT22;7907;51.368;6.730;2022-12-07T15:35:26;7.10;99.90
15615;DHT22;7907;51.368;6.730;2022-12-07T15:37:53;7.10;99.90
15615;DHT22;7907;51.368;6.730;2022-12-07T15:40:20;7.10;99.90
15615;DHT22;7907;51.368;6.730;2022-12-07T15:42:47;7.20;99.90
15615;DHT22;7907;51.368;6.730;2022-12-07T15:45:14;7.20;99.90
15615;DHT22;7907;51.368;6.730;2022-12-07T15:47:42;7.10;99.90
15615;DHT22;7907;51.368;6.730;2022-12-07T15:50:15;7.20;99.90
15615;DHT22;7907;51.368;6.730;2022-12-07T15:52:42;7.20;99.90
15615;DHT22;7907;51.368;6.730;2022-12-07T15:55:10;7.20;99.90
15615;DHT22;7907;51.368;6.730;2022-12-07T15:57:37;7.20;99.90
15615;DHT22;7907;51.368;6.730;2022-12-07T16:00:07;7.20;99.90
15615;DHT22;7907;51.368;6.730;2022-12-07T16:02:36;7.20;99.90
15615;DHT22;7907;51.368;6.730;2022-12-07T16:05:04;7.20;99.90
15615;DHT22;7907;51.368;6.730;2022-12-07T16:07:32;7.20;99.90
15615;DHT22;7907;51.368;6.730;2022-12-07T16:10:00;7.20;99.90
15615;DHT22;7907;51.368;6.730;2022-12-07T16:12:27;7.20;99.90
15615;DHT22;7907;51.368;6.730;2022-12-07T16:14:55;7.20;99.90
15615;DHT22;7907;51.368;6.730;2022-12-07T16:17:22;7.30;99.90
15615;DHT22;7907;51.368;6.730;2022-12-07T16:19:53;7.30;99.90
15615;DHT22;7907;51.368;6.730;2022-12-07T16:22:20;7.30;99.90
15615;DHT22;7907;51.368;6.730;2022-12-07T16:24:49;7.30;99.90
15615;DHT22;7907;51.368;6.730;2022-12-07T16:27:16;7.30;99.90
15615;DHT22;7907;51.368;6.730;2022-12-07T16:29:44;7.30;99.90
15615;DHT22;7907;51.368;6.730;2022-12-07T16:32:11;7.30;99.90
15615;DHT22;7907;51.368;6.730;2022-12-07T16:34:39;7.30;99.90
15615;DHT22;7907;51.368;6.730;2022-12-07T16:37:06;7.30;99.90
15615;DHT22;7907;51.368;6.730;2022-12-07T16:39:33;7.30;99.90
15615;DHT22;7907;51.368;6.730;2022-12-07T16:42:02;7.30;99.90
15615;DHT22;7907;51.368;6.730;2022-12-07T16:44:29;7.20;99.90
15615;DHT22;7907;51.368;6.730;2022-12-07T16:46:57;7.20;99.90
15615;DHT22;7907;51.368;6.730;2022-12-07T16:49:24;7.20;99.90